Time;durP1;ratioP1;P1;durP2;ratioP2;P2;SDS_P1;SDS_P2;PMS_P1;PMS_P2;Temp;Humidity;BMP_temperature;BMP_pressure;BME280_temperature;BME280_humidity;BME280_pressure;Samples;Min_cycle;Max_cycle;Signal;HPM_P1;HPM_P2
2023/04/30 00:02:11;;;;;;;9.23;7.97;;;;;;;;;;5052619;28;20210;-85
2023/04/30 00:04:38;;;;;;;9.37;7.60;;;;;;;;;;5052419;28;20276;-85
2023/04/30 00:07:05;;;;;;;9.60;7.77;;;;;;;;;;5053284;28;20209;-84
2023/04/30 00:09:32;;;;;;;9.53;7.87;;;;;;;;;;5052701;28;20206;-85
2023/04/30 00:12:00;;;;;;;10.53;7.93;;;;;;;;;;5052175;28;20242;-85
2023/04/30 00:14:28;;;;;;;8.33;7.50;;;;;;;;;;5052532;28;20234;-85
2023/04/30 00:16:55;;;;;;;9.10;7.30;;;;;;;;;;5052066;28;20233;-84
2023/04/30 00:19:22;;;;;;;8.87;7.87;;;;;;;;;;5052549;28;20668;-85
2023/04/30 00:21:49;;;;;;;10.17;7.67;;;;;;;;;;5052097;28;20238;-85
2023/04/30 00:24:16;;;;;;;9.00;7.87;;;;;;;;;;5052625;28;20276;-85
2023/04/30 00:26:43;;;;;;;8.60;7.70;;;;;;;;;;5052032;28;20244;-85
2023/04/30 00:29:11;;;;;;;8.87;7.90;;;;;;;;;;5052400;28;20611;-85
2023/04/30 00:31:38;;;;;;;9.30;8.40;;;;;;;;;;5051722;28;20746;-85
2023/04/30 00:34:05;;;;;;;9.73;8.23;;;;;;;;;;5052384;28;20222;-85
2023/04/30 00:36:32;;;;;;;10.07;8.87;;;;;;;;;;5052024;28;20245;-85
2023/04/30 00:38:59;;;;;;;10.20;7.93;;;;;;;;;;5052056;28;20209;-85
2023/04/30 00:41:27;;;;;;;9.93;8.80;;;;;;;;;;5051588;28;20261;-85
2023/04/30 00:43:54;;;;;;;9.03;8.13;;;;;;;;;;5051925;28;20260;-85
2023/04/30 00:46:22;;;;;;;10.77;8.80;;;;;;;;;;5051688;28;20237;-85
2023/04/30 00:48:49;;;;;;;11.70;9.00;;;;;;;;;;5052364;28;20617;-85
2023/04/30 00:51:16;;;;;;;9.80;8.53;;;;;;;;;;5052008;28;20313;-84
2023/04/30 00:53:44;;;;;;;11.23;9.00;;;;;;;;;;5052138;28;20596;-87
2023/04/30 00:56:11;;;;;;;9.87;8.40;;;;;;;;;;5051284;28;20723;-85
2023/04/30 00:58:38;;;;;;;10.17;8.53;;;;;;;;;;5051928;28;20212;-85
2023/04/30 01:01:05;;;;;;;12.07;8.83;;;;;;;;;;5050076;28;20234;-85
2023/04/30 01:03:34;;;;;;;10.67;8.93;;;;;;;;;;5039886;28;20237;-85
2023/04/30 01:06:02;;;;;;;9.43;8.43;;;;;;;;;;5050416;28;20276;-85
2023/04/30 01:08:29;;;;;;;10.33;8.93;;;;;;;;;;5052049;28;20293;-85
2023/04/30 01:11:02;;;;;;;12.70;9.63;;;;;;;;;;5051372;28;20245;-85
2023/04/30 01:13:30;;;;;;;11.33;9.17;;;;;;;;;;5051445;28;20233;-85
2023/04/30 01:15:59;;;;;;;10.53;9.53;;;;;;;;;;5051134;28;20243;-85
2023/04/30 01:18:30;;;;;;;10.60;9.50;;;;;;;;;;5051734;28;20199;-84
2023/04/30 01:21:02;;;;;;;14.27;9.90;;;;;;;;;;5051551;28;20233;-84
2023/04/30 01:23:33;;;;;;;13.50;9.40;;;;;;;;;;5051864;28;20663;-85
2023/04/30 01:26:08;;;;;;;12.93;9.93;;;;;;;;;;5051412;28;20248;-84
2023/04/30 01:28:38;;;;;;;11.07;9.03;;;;;;;;;;5051615;28;20667;-84
2023/04/30 01:31:12;;;;;;;10.00;8.97;;;;;;;;;;5051148;28;20229;-85
2023/04/30 01:33:39;;;;;;;10.73;9.40;;;;;;;;;;5051840;28;20254;-85
2023/04/30 01:36:12;;;;;;;10.33;8.73;;;;;;;;;;5051202;28;20234;-84
2023/04/30 01:38:51;;;;;;;11.20;9.33;;;;;;;;;;5051476;28;20561;-84
2023/04/30 01:41:21;;;;;;;11.03;9.60;;;;;;;;;;5051043;28;20234;-85
2023/04/30 01:43:55;;;;;;;13.83;10.03;;;;;;;;;;5051975;28;20222;-85
2023/04/30 01:46:26;;;;;;;13.30;9.73;;;;;;;;;;5051121;28;20814;-85
2023/04/30 01:48:55;;;;;;;10.77;9.67;;;;;;;;;;5051467;28;20193;-85
2023/04/30 01:51:26;;;;;;;10.70;9.50;;;;;;;;;;5050887;28;20261;-85
2023/04/30 01:53:54;;;;;;;11.53;9.37;;;;;;;;;;5051512;28;20226;-85
2023/04/30 01:56:27;;;;;;;11.63;9.70;;;;;;;;;;5050962;28;20237;-84
2023/04/30 01:58:56;;;;;;;13.57;10.27;;;;;;;;;;5051614;28;20198;-84
2023/04/30 02:01:27;;;;;;;11.93;10.00;;;;;;;;;;5050930;28;20241;-85
2023/04/30 02:03:54;;;;;;;11.67;10.43;;;;;;;;;;5051635;28;20698;-85
2023/04/30 02:06:21;;;;;;;11.43;10.07;;;;;;;;;;5050812;28;20514;-85
2023/04/30 02:08:48;;;;;;;11.73;9.17;;;;;;;;;;5051160;28;20206;-85
2023/04/30 02:11:15;;;;;;;12.77;10.40;;;;;;;;;;5050636;28;20616;-85
2023/04/30 02:13:42;;;;;;;11.27;10.17;;;;;;;;;;5050909;28;20238;-85
2023/04/30 02:16:10;;;;;;;11.27;10.10;;;;;;;;;;5050693;28;20245;-85
2023/04/30 02:18:37;;;;;;;12.40;10.63;;;;;;;;;;5053860;28;20304;-85
2023/04/30 02:21:05;;;;;;;11.90;10.20;;;;;;;;;;5054429;28;20241;-84
2023/04/30 02:23:32;;;;;;;11.80;10.13;;;;;;;;;;5054694;28;20233;-84
2023/04/30 02:25:59;;;;;;;15.57;10.20;;;;;;;;;;5054075;28;20242;-84
2023/04/30 02:28:26;;;;;;;14.33;10.40;;;;;;;;;;5054495;28;20305;-84
2023/04/30 02:30:53;;;;;;;12.77;10.70;;;;;;;;;;5054240;28;20240;-84
2023/04/30 02:33:21;;;;;;;13.53;11.23;;;;;;;;;;5054322;28;20232;-84
2023/04/30 02:35:48;;;;;;;14.40;10.57;;;;;;;;;;5053990;28;20242;-84
2023/04/30 02:38:15;;;;;;;12.93;10.43;;;;;;;;;;5054451;28;20660;-85
2023/04/30 02:40:42;;;;;;;12.80;9.97;;;;;;;;;;5053902;28;20266;-85
2023/04/30 02:43:09;;;;;;;11.80;10.60;;;;;;;;;;5054108;28;20237;-85
2023/04/30 02:45:36;;;;;;;12.87;10.97;;;;;;;;;;5053864;28;20238;-85
2023/04/30 02:48:04;;;;;;;11.93;10.60;;;;;;;;;;5054418;28;20206;-85
2023/04/30 02:50:33;;;;;;;12.67;10.17;;;;;;;;;;5053870;28;20352;-85
2023/04/30 02:53:00;;;;;;;12.60;10.53;;;;;;;;;;5054177;28;20234;-84
2023/04/30 02:55:27;;;;;;;13.67;11.17;;;;;;;;;;5053557;28;20237;-84
2023/04/30 02:57:55;;;;;;;14.73;10.57;;;;;;;;;;5054022;28;20754;-84
2023/04/30 03:00:22;;;;;;;13.10;10.77;;;;;;;;;;5053527;28;20763;-85
2023/04/30 03:02:49;;;;;;;13.17;10.87;;;;;;;;;;5054020;28;20232;-85
2023/04/30 03:05:16;;;;;;;12.73;11.43;;;;;;;;;;5053383;28;20237;-85
2023/04/30 03:07:44;;;;;;;12.17;10.53;;;;;;;;;;5054125;28;20271;-85
2023/04/30 03:10:11;;;;;;;13.40;11.37;;;;;;;;;;5053338;28;20234;-85
2023/04/30 03:12:38;;;;;;;16.37;10.60;;;;;;;;;;5053699;28;20245;-85
2023/04/30 03:15:06;;;;;;;15.27;10.87;;;;;;;;;;5053483;28;20321;-85
2023/04/30 03:17:33;;;;;;;15.47;11.30;;;;;;;;;;5054036;28;20202;-85
2023/04/30 03:20:00;;;;;;;14.83;10.83;;;;;;;;;;5053144;28;20711;-85
2023/04/30 03:22:27;;;;;;;13.40;10.53;;;;;;;;;;5053542;28;20209;-85
2023/04/30 03:24:56;;;;;;;12.67;11.17;;;;;;;;;;5053345;28;20244;-85
2023/04/30 03:27:23;;;;;;;13.83;11.40;;;;;;;;;;5053708;28;20619;-85
2023/04/30 03:29:50;;;;;;;15.83;11.73;;;;;;;;;;5052079;28;20217;-85
2023/04/30 03:32:17;;;;;;;12.77;10.80;;;;;;;;;;5053704;28;20212;-85
2023/04/30 03:34:45;;;;;;;12.43;11.13;;;;;;;;;;5053446;28;20205;-85
2023/04/30 03:37:12;;;;;;;12.77;11.10;;;;;;;;;;5053821;28;20206;-84
2023/04/30 03:39:39;;;;;;;14.07;11.63;;;;;;;;;;5053059;28;20220;-85
2023/04/30 03:42:07;;;;;;;13.43;11.37;;;;;;;;;;5053644;28;20891;-84
2023/04/30 03:44:34;;;;;;;14.00;11.37;;;;;;;;;;5052648;28;20226;-85
2023/04/30 03:47:01;;;;;;;13.03;10.73;;;;;;;;;;5053062;28;20849;-85
2023/04/30 03:49:28;;;;;;;15.33;10.73;;;;;;;;;;5053032;28;20210;-85
2023/04/30 03:51:55;;;;;;;17.30;11.80;;;;;;;;;;5052511;28;20238;-84
2023/04/30 03:54:22;;;;;;;15.13;11.87;;;;;;;;;;5053190;28;20230;-85
2023/04/30 03:56:49;;;;;;;13.73;11.33;;;;;;;;;;5052475;28;20586;-85
2023/04/30 03:59:18;;;;;;;15.53;11.20;;;;;;;;;;5052903;28;20626;-85
2023/04/30 04:01:45;;;;;;;15.23;11.10;;;;;;;;;;5052824;28;20707;-85
2023/04/30 04:04:12;;;;;;;13.47;11.93;;;;;;;;;;5052665;28;20225;-85
2023/04/30 04:06:39;;;;;;;12.87;11.50;;;;;;;;;;5052148;28;20238;-84
2023/04/30 04:09:06;;;;;;;18.43;12.63;;;;;;;;;;5052817;28;20306;-85
2023/04/30 04:11:34;;;;;;;16.27;12.13;;;;;;;;;;5052157;28;20236;-85
2023/04/30 04:14:01;;;;;;;16.27;12.40;;;;;;;;;;5052344;28;20319;-85
2023/04/30 04:16:29;;;;;;;15.60;12.03;;;;;;;;;;5052248;28;20230;-84
2023/04/30 04:18:56;;;;;;;14.53;12.23;;;;;;;;;;5052534;28;20684;-85
2023/04/30 04:21:23;;;;;;;15.00;12.23;;;;;;;;;;5051784;28;20230;-85
2023/04/30 04:23:50;;;;;;;12.83;11.50;;;;;;;;;;5052884;28;20226;-84
2023/04/30 04:26:20;;;;;;;15.43;11.73;;;;;;;;;;5053508;28;20238;-85
2023/04/30 04:28:47;;;;;;;14.83;11.80;;;;;;;;;;5053180;28;20228;-85
2023/04/30 04:31:14;;;;;;;14.00;11.40;;;;;;;;;;5051953;28;20265;-85
2023/04/30 04:33:43;;;;;;;16.77;13.03;;;;;;;;;;5054657;28;20226;-85
2023/04/30 04:36:10;;;;;;;16.63;12.70;;;;;;;;;;5051891;28;20234;-85
2023/04/30 04:38:37;;;;;;;16.67;13.17;;;;;;;;;;5052600;28;20209;-84
2023/04/30 04:41:04;;;;;;;14.70;11.33;;;;;;;;;;5051796;28;20229;-84
2023/04/30 04:43:31;;;;;;;17.00;12.53;;;;;;;;;;5037435;28;20230;-84
2023/04/30 04:45:58;;;;;;;14.13;12.63;;;;;;;;;;5032441;28;20241;-84
2023/04/30 04:48:25;;;;;;;17.87;12.57;;;;;;;;;;5032825;28;20579;-85
2023/04/30 04:50:53;;;;;;;14.03;11.50;;;;;;;;;;5031951;28;20313;-85
2023/04/30 04:53:20;;;;;;;14.80;11.93;;;;;;;;;;5048662;28;20244;-84
2023/04/30 04:55:47;;;;;;;15.17;12.13;;;;;;;;;;5037293;28;20566;-84
2023/04/30 04:58:15;;;;;;;15.37;12.03;;;;;;;;;;5051555;28;20209;-84
2023/04/30 05:00:42;;;;;;;15.00;11.67;;;;;;;;;;5045915;28;20233;-84
2023/04/30 05:03:09;;;;;;;13.97;11.83;;;;;;;;;;5032415;28;20222;-84
2023/04/30 05:05:36;;;;;;;17.40;12.33;;;;;;;;;;5051535;28;20257;-84
2023/04/30 05:08:05;;;;;;;14.63;12.27;;;;;;;;;;5051599;28;20710;-84
2023/04/30 05:10:33;;;;;;;15.00;13.17;;;;;;;;;;5035457;28;20738;-84
2023/04/30 05:13:00;;;;;;;13.87;12.40;;;;;;;;;;5051666;28;20241;-85
2023/04/30 05:15:27;;;;;;;14.10;11.43;;;;;;;;;;5051708;28;20681;-84
2023/04/30 05:17:54;;;;;;;16.17;12.00;;;;;;;;;;5051891;28;20668;-83
2023/04/30 05:20:21;;;;;;;13.83;11.77;;;;;;;;;;5034659;28;20234;-83
2023/04/30 05:22:49;;;;;;;13.30;11.90;;;;;;;;;;5051576;28;20229;-83
2023/04/30 05:25:17;;;;;;;13.83;11.70;;;;;;;;;;5050664;28;20230;-83
2023/04/30 05:27:44;;;;;;;16.30;12.07;;;;;;;;;;5039262;28;20214;-83
2023/04/30 05:30:14;;;;;;;14.17;11.57;;;;;;;;;;5031148;28;20239;-83
2023/04/30 05:32:41;;;;;;;14.73;11.83;;;;;;;;;;5032040;28;20230;-84
2023/04/30 05:35:08;;;;;;;15.23;11.87;;;;;;;;;;5033978;28;20234;-84
2023/04/30 05:37:35;;;;;;;15.40;12.03;;;;;;;;;;5045395;28;20608;-84
2023/04/30 05:40:03;;;;;;;14.07;11.43;;;;;;;;;;5051526;28;20233;-83
2023/04/30 05:42:32;;;;;;;13.83;11.63;;;;;;;;;;5051563;28;20209;-83
2023/04/30 05:44:59;;;;;;;16.33;11.43;;;;;;;;;;5051192;28;20233;-83
2023/04/30 05:47:26;;;;;;;16.03;12.43;;;;;;;;;;5051666;28;20230;-83
2023/04/30 05:49:53;;;;;;;14.53;10.80;;;;;;;;;;5051082;28;20210;-83
2023/04/30 05:52:20;;;;;;;16.07;12.10;;;;;;;;;;5051284;28;20202;-83
2023/04/30 05:54:48;;;;;;;15.47;11.40;;;;;;;;;;5054866;28;20564;-83
2023/04/30 05:57:15;;;;;;;13.80;10.47;;;;;;;;;;5055569;28;20293;-83
2023/04/30 05:59:43;;;;;;;12.63;11.30;;;;;;;;;;5054880;28;20202;-83
2023/04/30 06:02:10;;;;;;;13.97;11.30;;;;;;;;;;5055064;28;20197;-84
2023/04/30 06:04:37;;;;;;;12.87;10.83;;;;;;;;;;5054510;28;20222;-84
2023/04/30 06:07:04;;;;;;;13.37;11.17;;;;;;;;;;5055204;28;20230;-84
2023/04/30 06:09:31;;;;;;;13.87;11.40;;;;;;;;;;5055017;28;20691;-84
2023/04/30 06:11:58;;;;;;;14.50;11.33;;;;;;;;;;5054618;28;20230;-84
2023/04/30 06:14:25;;;;;;;14.23;11.57;;;;;;;;;;5055288;28;20263;-84
2023/04/30 06:16:54;;;;;;;16.50;11.90;;;;;;;;;;5054386;28;20260;-85
2023/04/30 06:19:21;;;;;;;14.67;11.40;;;;;;;;;;5055138;28;20210;-85
2023/04/30 06:21:48;;;;;;;14.03;10.53;;;;;;;;;;5054347;28;20233;-85
2023/04/30 06:24:15;;;;;;;14.53;11.30;;;;;;;;;;5054987;28;20253;-85
2023/04/30 06:26:42;;;;;;;16.53;11.23;;;;;;;;;;5054367;28;20700;-85
2023/04/30 06:29:09;;;;;;;12.93;10.90;;;;;;;;;;5055048;28;20206;-85
2023/04/30 06:31:36;;;;;;;14.20;11.13;;;;;;;;;;5054580;28;20229;-85
2023/04/30 06:34:04;;;;;;;12.83;10.77;;;;;;;;;;5054884;28;20226;-85
2023/04/30 06:36:32;;;;;;;11.87;9.87;;;;;;;;;;5054227;28;20230;-85
2023/04/30 06:38:59;;;;;;;12.80;10.70;;;;;;;;;;5054533;28;20202;-85
2023/04/30 06:41:26;;;;;;;14.37;11.00;;;;;;;;;;5053884;28;20233;-85
2023/04/30 06:43:53;;;;;;;10.50;8.83;;;;;;;;;;5036170;28;20230;-85
2023/04/30 06:46:20;;;;;;;10.57;8.80;;;;;;;;;;5033702;28;20241;-85
2023/04/30 06:48:47;;;;;;;11.80;8.67;;;;;;;;;;5035098;28;20199;-85
2023/04/30 06:51:15;;;;;;;9.37;8.40;;;;;;;;;;5034093;28;20242;-85
2023/04/30 06:53:42;;;;;;;13.27;7.40;;;;;;;;;;5034847;28;20233;-85
2023/04/30 06:56:09;;;;;;;8.83;6.67;;;;;;;;;;5034362;28;20731;-85
2023/04/30 06:58:37;;;;;;;8.33;7.43;;;;;;;;;;5035050;28;20214;-85
2023/04/30 07:01:04;;;;;;;7.50;6.60;;;;;;;;;;5034475;28;20607;-85
2023/04/30 07:03:32;;;;;;;7.53;5.83;;;;;;;;;;5037024;28;20226;-84
2023/04/30 07:05:59;;;;;;;6.90;6.10;;;;;;;;;;5034127;28;20701;-85
2023/04/30 07:08:27;;;;;;;6.10;5.50;;;;;;;;;;5034430;28;20210;-85
2023/04/30 07:10:55;;;;;;;7.70;6.40;;;;;;;;;;5034119;28;20231;-85
2023/04/30 07:13:22;;;;;;;6.53;5.83;;;;;;;;;;5034442;28;20230;-85
2023/04/30 07:15:50;;;;;;;9.00;6.03;;;;;;;;;;5034036;28;20238;-85
2023/04/30 07:18:17;;;;;;;6.13;5.63;;;;;;;;;;5034805;28;20199;-84
2023/04/30 07:20:44;;;;;;;7.43;5.57;;;;;;;;;;5036423;28;20238;-85
2023/04/30 07:23:11;;;;;;;8.27;5.83;;;;;;;;;;5052260;28;20244;-85
2023/04/30 07:25:39;;;;;;;5.90;5.27;;;;;;;;;;5053931;28;20234;-84
2023/04/30 07:28:07;;;;;;;5.87;4.40;;;;;;;;;;5054439;28;20222;-86
2023/04/30 07:30:34;;;;;;;5.73;4.57;;;;;;;;;;5054563;28;20248;-86
2023/04/30 07:33:01;;;;;;;7.53;5.23;;;;;;;;;;5055207;28;20573;-85
2023/04/30 07:35:29;;;;;;;6.37;4.87;;;;;;;;;;5054158;28;20628;-85
2023/04/30 07:37:56;;;;;;;4.90;4.50;;;;;;;;;;5054762;28;20294;-85
2023/04/30 07:40:23;;;;;;;4.70;4.20;;;;;;;;;;5055169;28;20234;-86
2023/04/30 07:42:51;;;;;;;4.73;4.23;;;;;;;;;;5054696;28;20230;-85
2023/04/30 07:45:18;;;;;;;6.43;3.80;;;;;;;;;;5054356;28;20700;-86
2023/04/30 07:47:46;;;;;;;3.10;2.80;;;;;;;;;;5054538;28;20225;-85
2023/04/30 07:50:14;;;;;;;3.13;2.70;;;;;;;;;;5053039;28;20312;-86
2023/04/30 07:52:41;;;;;;;2.53;2.33;;;;;;;;;;5054050;28;20226;-85
2023/04/30 07:55:08;;;;;;;2.50;2.23;;;;;;;;;;5053124;28;20237;-85
2023/04/30 07:57:36;;;;;;;3.17;2.50;;;;;;;;;;5053933;28;20260;-85
2023/04/30 08:00:04;;;;;;;2.20;2.10;;;;;;;;;;5053313;28;20230;-85
2023/04/30 08:02:31;;;;;;;2.73;2.03;;;;;;;;;;5052936;28;20216;-86
2023/04/30 08:04:59;;;;;;;2.33;2.00;;;;;;;;;;5056448;28;20236;-84
2023/04/30 08:07:26;;;;;;;2.23;2.03;;;;;;;;;;5054515;28;20250;-85
2023/04/30 08:09:53;;;;;;;4.67;2.37;;;;;;;;;;5053298;28;20249;-84
2023/04/30 08:12:20;;;;;;;1.90;1.80;;;;;;;;;;5053159;28;20206;-85
2023/04/30 08:14:47;;;;;;;2.88;2.17;;;;;;;;;;5052630;28;20209;-84
2023/04/30 08:17:15;;;;;;;1.85;1.75;;;;;;;;;;5048669;28;20194;-83
2023/04/30 08:19:42;;;;;;;2.00;1.90;;;;;;;;;;5052209;28;20213;-84
2023/04/30 08:22:09;;;;;;;2.83;2.15;;;;;;;;;;5052714;28;20210;-84
2023/04/30 08:24:36;;;;;;;1.88;1.77;;;;;;;;;;5052109;28;20705;-84
2023/04/30 08:27:03;;;;;;;2.20;2.10;;;;;;;;;;5052099;28;20233;-84
2023/04/30 08:29:30;;;;;;;1.70;1.60;;;;;;;;;;5052256;28;20206;-84
2023/04/30 08:32:02;;;;;;;2.33;1.95;;;;;;;;;;5051848;28;20241;-84
2023/04/30 08:34:30;;;;;;;2.42;1.67;;;;;;;;;;5052449;28;20225;-84
2023/04/30 08:36:57;;;;;;;1.50;1.40;;;;;;;;;;5051593;28;20230;-85
2023/04/30 08:39:25;;;;;;;2.40;1.30;;;;;;;;;;5052086;28;20691;-84
2023/04/30 08:41:55;;;;;;;2.92;1.75;;;;;;;;;;5051503;28;20242;-85
2023/04/30 08:44:22;;;;;;;1.48;1.40;;;;;;;;;;5052079;28;20218;-85
2023/04/30 08:46:50;;;;;;;2.60;1.50;;;;;;;;;;5051675;28;20272;-85
2023/04/30 08:49:17;;;;;;;2.15;1.45;;;;;;;;;;5052607;28;20212;-85
2023/04/30 08:51:46;;;;;;;1.23;1.23;;;;;;;;;;5051743;28;20234;-85
2023/04/30 08:54:13;;;;;;;1.30;1.30;;;;;;;;;;5035357;28;20693;-85
2023/04/30 08:56:40;;;;;;;1.17;1.17;;;;;;;;;;5052201;28;20241;-85
2023/04/30 08:59:08;;;;;;;1.30;1.20;;;;;;;;;;5053122;28;20230;-88
2023/04/30 09:01:35;;;;;;;1.52;1.30;;;;;;;;;;5053056;28;20311;-88
2023/04/30 09:04:03;;;;;;;1.27;1.17;;;;;;;;;;5052903;28;20233;-86
2023/04/30 09:06:31;;;;;;;1.73;1.02;;;;;;;;;;5051541;28;20260;-85
2023/04/30 09:09:08;;;;;;;1.40;1.30;;;;;;;;;;5051916;28;20710;-84
2023/04/30 09:11:35;;;;;;;1.95;1.00;;;;;;;;;;5051469;28;20233;-85
2023/04/30 09:14:02;;;;;;;1.13;1.13;;;;;;;;;;5051767;28;20264;-86
2023/04/30 09:16:31;;;;;;;1.05;1.05;;;;;;;;;;5051841;28;20237;-85
2023/04/30 09:18:58;;;;;;;1.65;1.30;;;;;;;;;;5053744;28;20348;-86
2023/04/30 09:21:32;;;;;;;2.35;1.20;;;;;;;;;;5053206;28;20229;-87
2023/04/30 09:24:02;;;;;;;1.10;1.10;;;;;;;;;;5041921;28;20222;-86
2023/04/30 09:26:31;;;;;;;2.08;1.30;;;;;;;;;;5053156;28;20222;-85
2023/04/30 09:28:59;;;;;;;1.35;1.30;;;;;;;;;;5056505;28;20731;-85
2023/04/30 09:31:26;;;;;;;1.20;1.10;;;;;;;;;;5056509;28;20237;-86
2023/04/30 09:33:54;;;;;;;1.00;1.00;;;;;;;;;;5057017;28;20321;-85
2023/04/30 09:36:21;;;;;;;1.25;1.15;;;;;;;;;;5056883;28;20276;-86
2023/04/30 09:38:48;;;;;;;1.27;1.20;;;;;;;;;;5057401;28;20656;-85
2023/04/30 09:41:25;;;;;;;1.42;1.33;;;;;;;;;;5055689;28;20245;-85
2023/04/30 09:43:52;;;;;;;1.08;1.08;;;;;;;;;;5057298;28;20246;-86
2023/04/30 09:46:20;;;;;;;1.52;1.42;;;;;;;;;;5055879;28;20241;-86
2023/04/30 09:48:48;;;;;;;1.20;1.10;;;;;;;;;;5056888;28;20299;-86
2023/04/30 09:51:15;;;;;;;0.82;0.82;;;;;;;;;;5056804;28;20288;-86
2023/04/30 09:53:43;;;;;;;0.75;0.75;;;;;;;;;;5056532;28;20237;-86
2023/04/30 09:56:12;;;;;;;0.98;0.98;;;;;;;;;;5055602;28;20238;-87
2023/04/30 09:58:43;;;;;;;1.60;0.70;;;;;;;;;;5056091;28;20692;-86
2023/04/30 10:01:11;;;;;;;0.63;0.63;;;;;;;;;;5055588;28;20739;-86
2023/04/30 10:03:40;;;;;;;1.00;1.00;;;;;;;;;;5056126;28;20226;-86
2023/04/30 10:06:07;;;;;;;4.65;1.05;;;;;;;;;;5055934;28;20236;-86
2023/04/30 10:08:37;;;;;;;0.80;0.80;;;;;;;;;;5056810;28;20256;-87
2023/04/30 10:11:04;;;;;;;0.95;0.95;;;;;;;;;;5055379;28;20240;-85
2023/04/30 10:13:32;;;;;;;1.30;1.00;;;;;;;;;;5057391;28;20276;-86
2023/04/30 10:16:05;;;;;;;1.90;0.73;;;;;;;;;;5055656;28;20711;-86
2023/04/30 10:18:34;;;;;;;0.90;0.90;;;;;;;;;;5055479;28;20645;-85
2023/04/30 10:21:02;;;;;;;1.40;0.70;;;;;;;;;;5054913;28;20589;-85
2023/04/30 10:23:30;;;;;;;1.45;0.68;;;;;;;;;;5055992;28;20222;-86
2023/04/30 10:25:58;;;;;;;1.25;1.00;;;;;;;;;;5057607;28;20225;-85
2023/04/30 10:28:25;;;;;;;1.55;0.60;;;;;;;;;;5056480;28;20222;-86
2023/04/30 10:33:49;;;;;;;0.68;0.68;;;;;;;;;;5065554;28;20225;-88
2023/04/30 10:36:22;;;;;;;0.63;0.60;;;;;;;;;;5062615;28;20268;-87
2023/04/30 10:38:49;;;;;;;0.80;0.70;;;;;;;;;;5054916;28;20233;-88
2023/04/30 10:41:20;;;;;;;0.63;0.63;;;;;;;;;;5055340;28;20233;-87
2023/04/30 10:43:48;;;;;;;0.40;0.40;;;;;;;;;;5054842;28;20221;-86
2023/04/30 10:46:22;;;;;;;1.48;0.63;;;;;;;;;;5054522;28;20234;-86
2023/04/30 10:48:53;;;;;;;0.63;0.43;;;;;;;;;;5054741;28;20279;-87
2023/04/30 10:51:21;;;;;;;0.47;0.47;;;;;;;;;;5053872;28;20294;-86
2023/04/30 10:53:49;;;;;;;1.40;0.70;;;;;;;;;;5054335;28;20321;-85
2023/04/30 10:56:30;;;;;;;0.52;0.52;;;;;;;;;;5053842;28;20233;-88
2023/04/30 10:59:00;;;;;;;0.60;0.60;;;;;;;;;;5050558;28;20582;-87
2023/04/30 11:01:27;;;;;;;0.80;0.75;;;;;;;;;;5053993;28;20261;-88
2023/04/30 11:04:09;;;;;;;0.65;0.65;;;;;;;;;;5054538;28;20324;-87
2023/04/30 11:07:00;;;;;;;1.25;0.63;;;;;;;;;;5053575;28;20312;-85
2023/04/30 11:09:36;;;;;;;0.70;0.70;;;;;;;;;;5039428;28;20210;-89
2023/04/30 11:12:04;;;;;;;1.75;0.60;;;;;;;;;;5054228;28;20201;-88
2023/04/30 11:14:33;;;;;;;1.30;0.75;;;;;;;;;;5054067;28;20876;-89
2023/04/30 11:17:01;;;;;;;0.50;0.50;;;;;;;;;;5054004;28;20230;-88
2023/04/30 11:19:29;;;;;;;0.68;0.45;;;;;;;;;;5054239;28;20245;-88
2023/04/30 11:22:15;;;;;;;0.85;0.40;;;;;;;;;;5048920;28;20233;-87
2023/04/30 11:25:08;;;;;;;0.43;0.43;;;;;;;;;;5039704;28;20237;-87
2023/04/30 11:27:35;;;;;;;0.40;0.40;;;;;;;;;;5024148;28;20230;-86
2023/04/30 11:30:04;;;;;;;0.60;0.60;;;;;;;;;;5033464;28;20251;-86
2023/04/30 11:32:35;;;;;;;0.95;0.68;;;;;;;;;;5034083;28;20302;-86
2023/04/30 11:35:04;;;;;;;1.02;0.70;;;;;;;;;;5047797;28;20240;-86
2023/04/30 11:37:32;;;;;;;0.68;0.57;;;;;;;;;;5054038;28;20557;-86
2023/04/30 11:40:01;;;;;;;0.40;0.40;;;;;;;;;;5053331;28;20351;-86
2023/04/30 11:42:30;;;;;;;0.45;0.45;;;;;;;;;;5053887;28;20210;-86
2023/04/30 11:45:03;;;;;;;0.50;0.50;;;;;;;;;;5064875;28;20253;-87
2023/04/30 11:47:39;;;;;;;0.80;0.70;;;;;;;;;;5053753;28;20222;-87
2023/04/30 11:50:08;;;;;;;0.80;0.45;;;;;;;;;;5052507;28;20304;-86
2023/04/30 11:52:35;;;;;;;1.27;0.50;;;;;;;;;;5053175;28;20623;-87
2023/04/30 11:55:05;;;;;;;0.50;0.50;;;;;;;;;;5046167;28;20733;-86
2023/04/30 11:57:35;;;;;;;0.32;0.30;;;;;;;;;;5033560;28;20207;-86
2023/04/30 12:00:09;;;;;;;0.85;0.65;;;;;;;;;;5032917;28;20622;-86
2023/04/30 12:02:36;;;;;;;0.22;0.22;;;;;;;;;;5033080;28;20217;-88
2023/04/30 12:05:03;;;;;;;0.80;0.80;;;;;;;;;;5028842;28;20227;-86
2023/04/30 12:07:32;;;;;;;1.30;0.47;;;;;;;;;;5013785;28;20215;-86
2023/04/30 12:09:59;;;;;;;1.70;0.80;;;;;;;;;;5032472;28;20234;-85
2023/04/30 12:12:29;;;;;;;0.52;0.52;;;;;;;;;;5033026;28;20206;-85
2023/04/30 12:14:57;;;;;;;0.40;0.40;;;;;;;;;;5035601;28;20316;-88
2023/04/30 12:17:34;;;;;;;0.40;0.40;;;;;;;;;;5053004;28;20201;-88
2023/04/30 12:20:01;;;;;;;0.40;0.40;;;;;;;;;;5048938;28;20252;-88
2023/04/30 12:22:29;;;;;;;0.30;0.30;;;;;;;;;;5033349;28;20217;-88
2023/04/30 12:24:57;;;;;;;0.52;0.30;;;;;;;;;;5032842;28;20587;-88
2023/04/30 12:27:24;;;;;;;0.63;0.40;;;;;;;;;;5033165;28;20214;-88
2023/04/30 12:29:53;;;;;;;0.70;0.35;;;;;;;;;;5032337;28;20210;-88
2023/04/30 12:32:21;;;;;;;0.50;0.50;;;;;;;;;;5031507;28;20202;-88
2023/04/30 12:34:49;;;;;;;0.30;0.30;;;;;;;;;;5031601;28;20207;-89
2023/04/30 12:37:17;;;;;;;1.25;0.45;;;;;;;;;;5044933;28;20252;-88
2023/04/30 12:39:46;;;;;;;1.13;0.50;;;;;;;;;;5034240;28;20579;-87
2023/04/30 12:42:19;;;;;;;0.75;0.60;;;;;;;;;;5033684;28;20199;-88
2023/04/30 12:44:46;;;;;;;0.30;0.30;;;;;;;;;;5032891;28;20238;-89
2023/04/30 12:47:15;;;;;;;0.63;0.40;;;;;;;;;;5033087;28;20214;-86
2023/04/30 12:49:42;;;;;;;0.25;0.25;;;;;;;;;;5032590;28;20264;-88
2023/04/30 12:52:10;;;;;;;0.30;0.30;;;;;;;;;;5033826;28;20207;-88
2023/04/30 12:54:38;;;;;;;0.30;0.30;;;;;;;;;;5033548;28;20230;-87
2023/04/30 12:57:06;;;;;;;1.10;0.60;;;;;;;;;;5034995;28;20214;-88
2023/04/30 12:59:35;;;;;;;0.20;0.20;;;;;;;;;;5033382;28;20618;-85
2023/04/30 13:02:06;;;;;;;1.95;1.73;;;;;;;;;;5033268;28;20214;-88
2023/04/30 13:04:34;;;;;;;0.43;0.43;;;;;;;;;;5033335;28;20226;-86
2023/04/30 13:07:01;;;;;;;2.65;0.68;;;;;;;;;;5030392;28;20282;-89
2023/04/30 13:09:28;;;;;;;1.92;0.57;;;;;;;;;;5026211;28;20231;-87
2023/04/30 13:11:56;;;;;;;0.30;0.30;;;;;;;;;;5020929;28;20300;-84
2023/04/30 13:14:23;;;;;;;0.85;0.45;;;;;;;;;;5033090;28;20248;-85
2023/04/30 13:16:52;;;;;;;0.98;0.63;;;;;;;;;;5032399;28;20245;-84
2023/04/30 13:19:19;;;;;;;0.50;0.50;;;;;;;;;;5032495;28;20202;-85
2023/04/30 13:21:46;;;;;;;0.63;0.50;;;;;;;;;;5031645;28;20245;-86
2023/04/30 13:24:13;;;;;;;0.43;0.43;;;;;;;;;;5032268;28;20227;-85
2023/04/30 13:26:40;;;;;;;1.45;0.50;;;;;;;;;;5031568;28;20709;-85
2023/04/30 13:29:07;;;;;;;0.52;0.40;;;;;;;;;;5032195;28;20222;-85
2023/04/30 13:31:35;;;;;;;0.43;0.43;;;;;;;;;;5031308;28;20226;-85
2023/04/30 13:34:03;;;;;;;1.02;0.50;;;;;;;;;;5032173;28;20227;-86
2023/04/30 13:36:31;;;;;;;0.55;0.45;;;;;;;;;;5031522;28;20292;-86
2023/04/30 13:38:58;;;;;;;1.35;0.45;;;;;;;;;;5032029;28;20202;-86
2023/04/30 13:41:25;;;;;;;0.40;0.40;;;;;;;;;;5031357;28;20253;-85
2023/04/30 13:43:52;;;;;;;0.65;0.40;;;;;;;;;;5032006;28;20795;-85
2023/04/30 13:46:20;;;;;;;0.60;0.40;;;;;;;;;;5031682;28;20234;-85
2023/04/30 13:48:50;;;;;;;0.30;0.30;;;;;;;;;;5032996;28;20230;-89
2023/04/30 13:51:18;;;;;;;0.85;0.40;;;;;;;;;;5032811;28;20321;-85
2023/04/30 13:53:46;;;;;;;0.50;0.50;;;;;;;;;;5032793;28;20226;-85
2023/04/30 13:56:14;;;;;;;3.10;0.60;;;;;;;;;;5032784;28;20312;-85
2023/04/30 13:58:41;;;;;;;2.28;0.47;;;;;;;;;;5028894;28;20220;-85
2023/04/30 14:01:09;;;;;;;1.38;0.57;;;;;;;;;;5012643;28;20242;-86
2023/04/30 14:03:36;;;;;;;0.25;0.25;;;;;;;;;;5012534;28;20661;-85
2023/04/30 14:06:03;;;;;;;0.40;0.40;;;;;;;;;;5012076;28;20239;-85
2023/04/30 14:08:32;;;;;;;0.30;0.30;;;;;;;;;;5028832;28;20233;-85
2023/04/30 14:10:59;;;;;;;1.20;0.40;;;;;;;;;;5031966;28;20234;-85
2023/04/30 14:13:26;;;;;;;0.55;0.40;;;;;;;;;;5024568;28;20231;-85
2023/04/30 14:15:54;;;;;;;0.35;0.35;;;;;;;;;;5015837;28;20249;-85
2023/04/30 14:18:21;;;;;;;0.43;0.40;;;;;;;;;;5016371;28;20235;-85
2023/04/30 14:20:48;;;;;;;0.50;0.50;;;;;;;;;;5015385;28;20246;-85
2023/04/30 14:23:15;;;;;;;0.38;0.38;;;;;;;;;;5015920;28;20231;-85
2023/04/30 14:25:44;;;;;;;1.75;0.50;;;;;;;;;;5024467;28;20235;-85
2023/04/30 14:28:11;;;;;;;0.50;0.50;;;;;;;;;;5035395;28;20199;-85
2023/04/30 14:30:38;;;;;;;1.65;0.68;;;;;;;;;;5034662;28;20725;-85
2023/04/30 14:33:06;;;;;;;0.40;0.40;;;;;;;;;;5034667;28;20273;-86
2023/04/30 14:35:33;;;;;;;0.60;0.40;;;;;;;;;;5034317;28;20234;-87
2023/04/30 14:38:00;;;;;;;0.50;0.50;;;;;;;;;;5030226;28;20210;-87
2023/04/30 14:40:27;;;;;;;0.50;0.50;;;;;;;;;;5014912;28;20230;-86
2023/04/30 14:42:56;;;;;;;5.05;0.70;;;;;;;;;;5027400;28;20227;-87